createdAt,value
2018-11-10T00:02:23.560Z,12.07
2018-11-10T00:04:54.213Z,12.30
2018-11-10T00:07:24.268Z,12.33
2018-11-10T00:10:09.612Z,11.90
2018-11-10T00:12:39.983Z,11.23
2018-11-10T00:15:11.850Z,12.30
2018-11-10T00:17:41.928Z,11.80
2018-11-10T00:20:12.784Z,11.80
2018-11-10T00:23:45.682Z,12.40
2018-11-10T00:26:15.643Z,12.00
2018-11-10T00:28:45.744Z,13.47
2018-11-10T00:31:15.948Z,12.00
2018-11-10T00:33:46.184Z,12.10
2018-11-10T00:36:16.307Z,12.20
2018-11-10T00:38:46.509Z,12.80
2018-11-10T00:41:16.723Z,13.10
2018-11-10T00:43:46.918Z,12.70
2018-11-10T00:46:17.142Z,13.77
2018-11-10T00:48:47.272Z,13.23
2018-11-10T00:51:17.286Z,12.50
2018-11-10T00:53:47.460Z,11.80
2018-11-10T00:56:17.387Z,11.30
2018-11-10T00:58:47.507Z,12.10
2018-11-10T01:01:17.811Z,12.23
2018-11-10T01:03:48.213Z,12.83
2018-11-10T01:06:18.299Z,11.60
2018-11-10T01:08:48.577Z,12.00
2018-11-10T01:11:18.806Z,12.17
2018-11-10T01:13:48.776Z,11.80
2018-11-10T01:16:19.239Z,12.63
2018-11-10T01:18:49.345Z,13.43
2018-11-10T01:21:19.639Z,13.03
2018-11-10T01:23:49.768Z,11.50
2018-11-10T01:26:20.197Z,9.97
2018-11-10T01:28:50.682Z,9.67
2018-11-10T01:31:21.057Z,9.63
2018-11-10T01:33:51.280Z,10.77
2018-11-10T01:36:21.584Z,11.33
2018-11-10T01:38:51.852Z,12.00
2018-11-10T01:41:22.111Z,12.07
2018-11-10T01:43:52.212Z,11.90
2018-11-10T01:46:22.358Z,12.07
2018-11-10T01:48:52.295Z,10.93
2018-11-10T01:51:22.207Z,10.70
2018-11-10T01:53:52.427Z,9.20
2018-11-10T01:56:22.417Z,9.80
2018-11-10T01:58:52.442Z,8.07
2018-11-10T02:01:23.093Z,8.97
2018-11-10T02:03:53.195Z,9.37
2018-11-10T02:06:23.684Z,9.33
2018-11-10T02:08:53.793Z,9.43
2018-11-10T02:11:23.933Z,9.10
2018-11-10T02:13:54.070Z,9.90
2018-11-10T02:16:24.172Z,11.00
2018-11-10T02:18:54.882Z,9.47
2018-11-10T02:21:24.844Z,10.13
2018-11-10T02:23:54.988Z,8.80
2018-11-10T02:26:25.291Z,9.80
2018-11-10T02:28:55.528Z,9.73
2018-11-10T02:31:25.852Z,8.90
2018-11-10T02:33:55.937Z,9.70
2018-11-10T02:36:26.942Z,9.37
2018-11-10T02:38:57.053Z,9.87
2018-11-10T02:41:27.812Z,9.43
2018-11-10T02:43:57.738Z,8.93
2018-11-10T02:46:27.869Z,7.70
2018-11-10T02:48:58.143Z,7.33
2018-11-10T02:51:28.205Z,8.13
2018-11-10T02:53:58.393Z,8.20
2018-11-10T02:56:28.119Z,7.67
2018-11-10T02:58:58.578Z,9.07
2018-11-10T03:01:29.585Z,8.13
2018-11-10T03:03:59.631Z,7.77
2018-11-10T03:06:29.806Z,8.80
2018-11-10T03:09:00.198Z,10.00
2018-11-10T03:11:30.787Z,9.60
2018-11-10T03:14:00.938Z,10.33
2018-11-10T03:16:31.467Z,12.83
2018-11-10T03:19:01.393Z,11.57
2018-11-10T03:21:31.527Z,10.70
2018-11-10T03:24:01.647Z,10.73
2018-11-10T03:26:31.804Z,9.03
2018-11-10T03:29:01.924Z,9.00
2018-11-10T03:31:32.105Z,8.00
2018-11-10T03:34:02.529Z,9.10
2018-11-10T03:36:32.773Z,7.43
2018-11-10T03:39:03.675Z,7.50
2018-11-10T03:41:33.706Z,7.50
2018-11-10T03:44:04.139Z,7.00
2018-11-10T03:46:34.398Z,6.80
2018-11-10T03:49:04.768Z,7.20
2018-11-10T03:51:34.999Z,7.53
2018-11-10T03:54:05.629Z,6.10
2018-11-10T03:56:35.849Z,6.63
2018-11-10T03:59:06.038Z,6.80
2018-11-10T04:01:36.120Z,6.60
2018-11-10T04:04:06.165Z,6.00
2018-11-10T04:06:36.249Z,6.30
2018-11-10T04:09:07.363Z,8.30
2018-11-10T04:11:37.274Z,7.60
2018-11-10T04:14:07.330Z,8.03
2018-11-10T04:16:37.425Z,8.47
2018-11-10T04:19:07.322Z,8.80
2018-11-10T04:21:37.293Z,8.20
2018-11-10T04:24:07.537Z,8.43
2018-11-10T04:26:37.704Z,7.33
2018-11-10T04:29:07.934Z,7.37
2018-11-10T04:31:37.916Z,8.40
2018-11-10T04:34:07.943Z,7.80
2018-11-10T04:36:37.967Z,8.30
2018-11-10T04:39:09.194Z,7.13
2018-11-10T04:41:39.111Z,8.23
2018-11-10T04:44:09.427Z,9.20
2018-11-10T04:46:39.530Z,9.33
2018-11-10T04:49:09.462Z,8.60
2018-11-10T04:51:39.652Z,9.73
2018-11-10T04:54:09.594Z,10.60
2018-11-10T04:56:39.553Z,9.23
2018-11-10T04:59:09.750Z,10.37
2018-11-10T05:01:40.260Z,10.60
2018-11-10T05:04:10.488Z,10.13
2018-11-10T05:06:40.551Z,8.57
2018-11-10T05:09:11.538Z,9.70
2018-11-10T05:11:41.867Z,9.53
2018-11-10T05:14:12.061Z,9.33
2018-11-10T05:16:42.285Z,9.77
2018-11-10T05:19:12.970Z,9.97
2018-11-10T05:21:43.126Z,11.23
2018-11-10T05:24:13.283Z,9.80
2018-11-10T05:26:43.373Z,9.00
2018-11-10T05:29:14.094Z,9.40
2018-11-10T05:31:44.326Z,9.60
2018-11-10T05:34:14.390Z,8.00
2018-11-10T05:36:44.389Z,9.23
2018-11-10T05:39:14.617Z,9.03
2018-11-10T05:41:44.761Z,8.00
2018-11-10T05:44:14.667Z,8.70
2018-11-10T05:46:44.655Z,8.50
2018-11-10T05:49:14.557Z,18.50
2018-11-10T05:51:44.678Z,9.90
2018-11-10T05:54:14.815Z,9.77
2018-11-10T05:56:45.055Z,8.50
2018-11-10T05:59:14.908Z,9.70
2018-11-10T06:01:45.129Z,8.77
2018-11-10T06:04:15.276Z,8.03
2018-11-10T06:06:45.228Z,7.97
2018-11-10T06:09:15.373Z,10.87
2018-11-10T06:11:45.576Z,7.00
2018-11-10T06:14:15.613Z,8.43
2018-11-10T06:16:45.799Z,7.10
2018-11-10T06:19:15.891Z,8.17
2018-11-10T06:21:46.041Z,7.27
2018-11-10T06:24:16.058Z,7.40
2018-11-10T06:26:46.674Z,6.30
2018-11-10T06:29:16.735Z,7.07
2018-11-10T06:31:46.894Z,7.80
2018-11-10T06:34:17.040Z,8.80
2018-11-10T06:36:47.774Z,7.97
2018-11-10T06:39:18.162Z,7.10
2018-11-10T06:41:48.382Z,7.90
2018-11-10T06:44:18.506Z,7.60
2018-11-10T06:46:48.924Z,6.97
2018-11-10T06:49:19.427Z,7.30
2018-11-10T06:51:49.465Z,8.10
2018-11-10T06:54:19.727Z,7.13
2018-11-10T06:56:50.115Z,7.53
2018-11-10T06:59:20.241Z,6.60
2018-11-10T07:01:50.468Z,6.93
2018-11-10T07:04:20.760Z,6.17
2018-11-10T07:06:50.751Z,5.40
2018-11-10T07:09:21.002Z,5.80
2018-11-10T07:11:51.406Z,5.83
2018-11-10T07:14:21.377Z,6.20
2018-11-10T07:16:51.494Z,6.73
2018-11-10T07:19:21.882Z,5.70
2018-11-10T07:21:51.852Z,5.57
2018-11-10T07:24:22.104Z,6.27
2018-11-10T07:26:52.500Z,5.50
2018-11-10T07:29:22.523Z,7.20
2018-11-10T07:31:52.604Z,5.00
2018-11-10T07:34:22.745Z,5.50
2018-11-10T07:36:52.725Z,5.63
2018-11-10T07:39:23.033Z,5.40
2018-11-10T07:41:53.303Z,7.20
2018-11-10T07:44:23.720Z,8.10
2018-11-10T07:46:53.772Z,6.33
2018-11-10T07:49:24.395Z,6.30
2018-11-10T07:51:54.796Z,7.37
2018-11-10T07:54:25.242Z,6.47
2018-11-10T07:56:55.288Z,7.73
2018-11-10T07:59:25.393Z,6.90
2018-11-10T08:01:55.729Z,6.90
2018-11-10T08:04:26.560Z,7.53
2018-11-10T08:06:56.874Z,7.30
2018-11-10T08:09:27.167Z,8.73
2018-11-10T08:11:57.313Z,6.80
2018-11-10T08:14:27.581Z,7.10
2018-11-10T08:16:57.603Z,8.43
2018-11-10T08:19:27.737Z,6.90
2018-11-10T08:21:57.865Z,10.10
2018-11-10T08:24:27.954Z,13.60
2018-11-10T08:26:58.313Z,16.40
2018-11-10T08:29:28.500Z,22.33
2018-11-10T08:31:58.604Z,19.53
2018-11-10T08:34:28.585Z,20.23
2018-11-10T08:36:58.695Z,19.03
2018-11-10T08:39:28.847Z,20.43
2018-11-10T08:41:59.007Z,21.07
2018-11-10T08:44:29.276Z,21.63
2018-11-10T08:46:59.430Z,20.47
2018-11-10T08:49:29.461Z,19.40
2018-11-10T08:51:59.532Z,20.77
2018-11-10T08:54:29.606Z,19.80
2018-11-10T08:56:59.833Z,19.30
2018-11-10T08:59:29.755Z,20.33
2018-11-10T09:02:00.072Z,17.73
2018-11-10T09:04:31.000Z,17.63
2018-11-10T09:07:01.270Z,18.03
2018-11-10T09:09:31.269Z,17.57
2018-11-10T09:12:01.977Z,17.50
2018-11-10T09:14:32.149Z,18.60
2018-11-10T09:17:03.525Z,18.40
2018-11-10T09:19:33.556Z,16.07
2018-11-10T09:22:03.803Z,17.37
2018-11-10T09:24:34.163Z,14.63
2018-11-10T09:27:04.698Z,16.70
2018-11-10T09:29:34.874Z,18.13
2018-11-10T09:32:04.957Z,16.90
2018-11-10T09:34:35.171Z,17.77
2018-11-10T09:37:05.280Z,17.80
2018-11-10T09:39:35.825Z,17.97
2018-11-10T09:42:06.157Z,18.20
2018-11-10T09:44:36.244Z,18.13
2018-11-10T09:47:06.904Z,20.00
2018-11-10T09:49:37.060Z,20.37
2018-11-10T09:52:07.010Z,19.23
2018-11-10T09:54:37.117Z,21.60
2018-11-10T09:57:07.471Z,21.47
2018-11-10T09:59:37.585Z,19.20
2018-11-10T10:02:08.132Z,19.27
2018-11-10T10:04:37.940Z,22.47
2018-11-10T10:07:08.086Z,22.80
2018-11-10T10:09:38.271Z,21.30
2018-11-10T10:12:08.504Z,23.30
2018-11-10T10:14:38.683Z,23.97
2018-11-10T10:17:08.834Z,21.07
2018-11-10T10:19:38.977Z,22.07
2018-11-10T10:22:09.257Z,23.10
2018-11-10T10:24:39.247Z,21.87
2018-11-10T10:27:09.301Z,23.60
2018-11-10T10:29:39.359Z,22.10
2018-11-10T10:32:09.676Z,22.40
2018-11-10T10:34:39.908Z,23.63
2018-11-10T10:37:09.895Z,18.63
2018-11-10T10:39:39.983Z,22.87
2018-11-10T10:42:10.021Z,22.93
2018-11-10T10:44:40.258Z,20.13
2018-11-10T10:47:10.339Z,21.70
2018-11-10T10:49:40.261Z,21.30
2018-11-10T10:52:10.595Z,22.07
2018-11-10T10:54:40.896Z,21.90
2018-11-10T10:57:10.943Z,24.80
2018-11-10T10:59:41.065Z,23.27
2018-11-10T11:02:16.336Z,23.70
2018-11-10T11:04:51.556Z,21.83
2018-11-10T11:07:21.943Z,22.83
2018-11-10T11:09:52.146Z,22.80
2018-11-10T11:12:22.480Z,23.83
2018-11-10T11:14:52.548Z,23.73
2018-11-10T11:17:23.110Z,25.10
2018-11-10T11:19:53.642Z,25.03
2018-11-10T11:22:23.964Z,22.00
2018-11-10T11:24:54.028Z,22.57
2018-11-10T11:27:24.531Z,22.03
2018-11-10T11:29:54.648Z,23.37
2018-11-10T11:32:24.701Z,21.87
2018-11-10T11:34:54.864Z,20.20
2018-11-10T11:37:24.933Z,21.43
2018-11-10T11:39:54.896Z,25.20
2018-11-10T11:42:25.116Z,22.43
2018-11-10T11:44:55.212Z,24.17
2018-11-10T11:47:25.334Z,23.00
2018-11-10T11:49:55.556Z,21.30
2018-11-10T11:52:25.751Z,20.67
2018-11-10T11:54:56.250Z,22.67
2018-11-10T11:57:26.528Z,21.33
2018-11-10T11:59:56.548Z,22.57
2018-11-10T12:02:26.631Z,20.37
2018-11-10T12:04:56.692Z,23.30
2018-11-10T12:07:26.827Z,20.97
2018-11-10T12:09:56.968Z,20.30
2018-11-10T12:12:26.906Z,18.90
2018-11-10T12:14:57.078Z,20.50
2018-11-10T12:17:27.218Z,21.33
2018-11-10T12:19:57.841Z,22.70
2018-11-10T12:22:28.055Z,19.93
2018-11-10T12:24:58.446Z,19.80
2018-11-10T12:27:28.746Z,20.33
2018-11-10T12:29:59.203Z,20.17
2018-11-10T12:32:29.726Z,19.20
2018-11-10T12:34:59.667Z,20.30
2018-11-10T12:37:29.752Z,20.50
2018-11-10T12:39:59.764Z,18.80
2018-11-10T12:42:29.945Z,18.30
2018-11-10T12:45:00.221Z,23.63
2018-11-10T12:47:30.517Z,21.93
2018-11-10T12:50:00.548Z,21.13
2018-11-10T12:52:30.597Z,22.20
2018-11-10T12:55:00.817Z,21.03
2018-11-10T12:57:30.758Z,21.47
2018-11-10T13:00:01.641Z,21.87
2018-11-10T13:02:31.845Z,19.30
2018-11-10T13:05:02.024Z,20.00
2018-11-10T13:07:32.295Z,23.00
2018-11-10T13:10:02.418Z,21.70
2018-11-10T13:12:32.814Z,20.93
2018-11-10T13:15:03.296Z,22.53
2018-11-10T13:17:33.423Z,21.10
2018-11-10T13:20:05.272Z,22.13
2018-11-10T13:22:35.837Z,21.33
2018-11-10T13:25:06.533Z,19.73
2018-11-10T13:27:36.853Z,20.70
2018-11-10T13:30:08.347Z,21.57
2018-11-10T13:32:38.573Z,20.67
2018-11-10T13:35:09.589Z,21.50
2018-11-10T13:37:39.600Z,21.03
2018-11-10T13:40:10.137Z,23.53
2018-11-10T13:42:40.232Z,22.33
2018-11-10T13:45:11.648Z,22.23
2018-11-10T13:47:41.747Z,23.03
2018-11-10T13:50:12.354Z,21.10
2018-11-10T13:52:43.186Z,19.90
2018-11-10T13:55:13.651Z,19.93
2018-11-10T13:57:43.925Z,19.93
2018-11-10T14:00:16.574Z,23.70
2018-11-10T14:02:47.017Z,20.90
2018-11-10T14:05:17.136Z,21.30
2018-11-10T14:07:47.090Z,19.70
2018-11-10T14:10:17.393Z,20.83
2018-11-10T14:12:47.540Z,22.63
2018-11-10T14:15:17.670Z,47.00
2018-11-10T14:17:47.949Z,26.67
2018-11-10T14:20:17.989Z,22.60
2018-11-10T14:22:48.135Z,20.93
2018-11-10T14:25:18.401Z,21.23
2018-11-10T14:27:48.526Z,21.43
2018-11-10T14:30:18.997Z,22.30
2018-11-10T14:32:49.024Z,22.13
2018-11-10T14:35:19.398Z,24.40
2018-11-10T14:37:49.736Z,20.40
2018-11-10T14:40:20.591Z,20.90
2018-11-10T14:42:50.863Z,22.90
2018-11-10T14:45:21.098Z,20.43
2018-11-10T14:47:51.108Z,22.30
2018-11-10T14:50:21.400Z,20.63
2018-11-10T14:52:51.503Z,22.50
2018-11-10T14:55:21.561Z,20.90
2018-11-10T14:57:51.595Z,23.80
2018-11-10T15:00:25.908Z,23.60
2018-11-10T15:02:56.146Z,28.87
2018-11-10T15:05:26.415Z,25.30
2018-11-10T15:07:56.567Z,24.90
2018-11-10T15:10:26.634Z,23.33
2018-11-10T15:12:56.729Z,22.80
2018-11-10T15:15:26.920Z,26.03
2018-11-10T15:17:57.197Z,25.93
2018-11-10T15:20:27.163Z,25.80
2018-11-10T15:22:57.251Z,27.20
2018-11-10T15:25:27.622Z,25.47
2018-11-10T15:27:57.635Z,24.40
2018-11-10T15:30:27.913Z,25.87
2018-11-10T15:32:58.170Z,29.40
2018-11-10T15:35:28.114Z,26.73
2018-11-10T15:37:58.367Z,27.40
2018-11-10T15:40:28.905Z,30.90
2018-11-10T15:42:59.044Z,28.07
2018-11-10T15:45:29.026Z,29.47
2018-11-10T15:47:59.256Z,29.60
2018-11-10T15:50:29.799Z,28.47
2018-11-10T15:52:59.819Z,26.70
2018-11-10T15:55:29.879Z,28.57
2018-11-10T15:58:00.009Z,30.67
2018-11-10T16:00:30.293Z,30.50
2018-11-10T16:03:00.363Z,33.60
2018-11-10T16:05:30.803Z,34.10
2018-11-10T16:08:00.936Z,31.63
2018-11-10T16:10:31.426Z,33.90
2018-11-10T16:13:02.064Z,34.83
2018-11-10T16:15:32.235Z,37.00
2018-11-10T16:18:03.360Z,33.30
2018-11-10T16:20:33.603Z,35.47
2018-11-10T16:23:04.217Z,38.30
2018-11-10T16:25:34.337Z,35.87
2018-11-10T16:28:05.520Z,33.30
2018-11-10T16:30:35.719Z,32.23
2018-11-10T16:33:05.983Z,35.67
2018-11-10T16:35:36.054Z,34.60
2018-11-10T16:38:06.252Z,35.10
2018-11-10T16:40:37.096Z,32.37
2018-11-10T16:43:07.414Z,34.93
2018-11-10T16:45:37.421Z,41.03
2018-11-10T16:48:07.558Z,37.30
2018-11-10T16:50:37.849Z,190.00
2018-11-10T16:53:07.862Z,85.13
2018-11-10T16:55:38.003Z,42.30
2018-11-10T16:58:08.298Z,40.07
2018-11-10T17:00:38.438Z,41.00
2018-11-10T17:03:08.765Z,39.13
2018-11-10T17:05:38.707Z,41.03
2018-11-10T17:08:08.886Z,49.00
2018-11-10T17:10:38.976Z,44.60
2018-11-10T17:13:09.919Z,44.83
2018-11-10T17:15:40.352Z,68.93
2018-11-10T17:18:10.485Z,79.37
2018-11-10T17:20:40.813Z,64.23
2018-11-10T17:23:10.951Z,56.63
2018-11-10T17:25:41.084Z,53.43
2018-11-10T17:28:11.408Z,56.57
2018-11-10T17:30:41.563Z,54.80
2018-11-10T17:33:11.558Z,47.80
2018-11-10T17:35:41.859Z,54.73
2018-11-10T17:38:12.181Z,358.03
2018-11-10T17:40:42.496Z,74.77
2018-11-10T17:43:12.768Z,59.50
2018-11-10T17:45:42.980Z,60.90
2018-11-10T17:48:13.129Z,65.10
2018-11-10T17:50:43.154Z,51.50
2018-11-10T17:53:13.374Z,48.70
2018-11-10T17:55:43.455Z,50.90
2018-11-10T17:58:13.587Z,48.30
2018-11-10T18:00:43.930Z,41.50
2018-11-10T18:03:14.451Z,42.40
2018-11-10T18:05:44.570Z,46.17
2018-11-10T18:08:14.836Z,39.17
2018-11-10T18:10:45.030Z,54.20
2018-11-10T18:13:15.248Z,58.47
2018-11-10T18:15:45.513Z,62.60
2018-11-10T18:18:15.802Z,69.30
2018-11-10T18:20:45.904Z,52.60
2018-11-10T18:23:16.012Z,57.90
2018-11-10T18:25:47.065Z,56.47
2018-11-10T18:28:17.411Z,61.60
2018-11-10T18:30:48.208Z,54.90
2018-11-10T18:33:18.336Z,59.37
2018-11-10T18:35:48.608Z,64.43
2018-11-10T18:38:18.898Z,60.50
2018-11-10T18:40:49.711Z,62.00
2018-11-10T18:43:20.151Z,57.63
2018-11-10T18:45:50.542Z,56.87
2018-11-10T18:48:21.024Z,56.13
2018-11-10T18:50:51.761Z,44.63
2018-11-10T18:53:21.933Z,50.07
2018-11-10T18:55:52.044Z,62.77
2018-11-10T18:58:22.358Z,61.33
2018-11-10T19:00:53.365Z,51.50
2018-11-10T19:03:23.582Z,54.00
2018-11-10T19:05:53.751Z,56.53
2018-11-10T19:08:24.716Z,52.83
2018-11-10T19:10:55.230Z,55.70
2018-11-10T19:13:25.758Z,52.80
2018-11-10T19:15:56.081Z,52.97
2018-11-10T19:18:26.506Z,66.00
2018-11-10T19:20:56.996Z,57.07
2018-11-10T19:23:27.152Z,51.27
2018-11-10T19:25:57.317Z,49.93
2018-11-10T19:28:27.842Z,55.13
2018-11-10T19:30:58.129Z,52.77
2018-11-10T19:33:28.555Z,54.90
2018-11-10T19:35:59.223Z,51.00
2018-11-10T19:38:29.429Z,55.90
2018-11-10T19:40:59.838Z,53.87
2018-11-10T19:43:30.157Z,47.70
2018-11-10T19:46:00.488Z,47.43
2018-11-10T19:48:30.933Z,45.37
2018-11-10T19:51:02.126Z,43.67
2018-11-10T19:53:32.573Z,43.87
2018-11-10T19:56:02.940Z,43.00
2018-11-10T19:58:33.753Z,36.90
2018-11-10T20:01:03.920Z,38.87
2018-11-10T20:03:34.355Z,41.03
2018-11-10T20:06:04.775Z,42.47
2018-11-10T20:08:35.071Z,40.00
2018-11-10T20:11:05.672Z,39.23
2018-11-10T20:13:36.459Z,41.07
2018-11-10T20:16:06.806Z,36.20
2018-11-10T20:18:37.084Z,35.17
2018-11-10T20:21:06.988Z,42.73
2018-11-10T20:23:37.114Z,34.67
2018-11-10T20:26:07.161Z,37.20
2018-11-10T20:28:37.264Z,34.60
2018-11-10T20:31:07.707Z,34.07
2018-11-10T20:33:37.939Z,32.67
2018-11-10T20:36:08.147Z,37.77
2018-11-10T20:38:38.337Z,33.50
2018-11-10T20:41:08.723Z,37.03
2018-11-10T20:43:39.136Z,39.50
2018-11-10T20:46:09.253Z,36.30
2018-11-10T20:48:40.600Z,35.03
2018-11-10T20:51:11.091Z,35.63
2018-11-10T20:53:41.367Z,40.00
2018-11-10T20:56:11.570Z,39.03
2018-11-10T20:58:41.942Z,36.47
2018-11-10T21:01:12.388Z,39.53
2018-11-10T21:03:42.538Z,33.53
2018-11-10T21:06:12.962Z,35.23
2018-11-10T21:08:43.297Z,37.10
2018-11-10T21:11:13.455Z,30.07
2018-11-10T21:13:43.662Z,36.87
2018-11-10T21:16:13.990Z,34.27
2018-11-10T21:18:44.191Z,35.63
2018-11-10T21:21:14.519Z,36.10
2018-11-10T21:23:44.850Z,32.90
2018-11-10T21:26:15.990Z,40.30
2018-11-10T21:28:46.269Z,34.10
2018-11-10T21:31:16.750Z,36.33
2018-11-10T21:33:46.907Z,36.70
2018-11-10T21:36:17.213Z,38.97
2018-11-10T21:38:47.561Z,34.20
2018-11-10T21:41:17.910Z,39.60
2018-11-10T21:43:48.347Z,41.13
2018-11-10T21:46:18.775Z,44.60
2018-11-10T21:48:49.026Z,41.57
2018-11-10T21:51:19.698Z,38.47
2018-11-10T21:53:50.867Z,38.40
2018-11-10T21:56:21.281Z,44.00
2018-11-10T21:58:51.513Z,41.90
2018-11-10T22:01:22.707Z,44.57
2018-11-10T22:03:53.199Z,36.97
2018-11-10T22:06:23.457Z,45.40
2018-11-10T22:08:53.739Z,48.73
2018-11-10T22:11:24.014Z,44.00
2018-11-10T22:13:54.381Z,45.20
2018-11-10T22:16:24.747Z,41.57
2018-11-10T22:18:55.076Z,43.80
2018-11-10T22:21:25.237Z,45.77
2018-11-10T22:23:55.540Z,41.97
2018-11-10T22:26:25.895Z,43.70
2018-11-10T22:28:56.313Z,38.43
2018-11-10T22:31:26.697Z,46.23
2018-11-10T22:33:56.984Z,51.90
2018-11-10T22:36:27.365Z,37.80
2018-11-10T22:38:57.562Z,40.70
2018-11-10T22:41:27.841Z,37.73
2018-11-10T22:43:58.193Z,40.13
2018-11-10T22:46:28.358Z,38.87
2018-11-10T22:48:58.460Z,41.53
2018-11-10T22:51:28.522Z,37.13
2018-11-10T22:53:58.706Z,36.87
2018-11-10T22:56:28.877Z,36.90
2018-11-10T22:58:59.171Z,38.00
2018-11-10T23:01:31.308Z,33.50
2018-11-10T23:04:01.917Z,36.17
2018-11-10T23:06:31.935Z,35.83
2018-11-10T23:09:02.072Z,37.60
2018-11-10T23:11:32.653Z,37.47
2018-11-10T23:14:02.923Z,39.40
2018-11-10T23:16:32.922Z,37.80
2018-11-10T23:19:03.275Z,37.73
2018-11-10T23:21:33.115Z,37.07
2018-11-10T23:24:04.030Z,33.67
2018-11-10T23:26:34.647Z,33.90
2018-11-10T23:29:04.738Z,36.43
2018-11-10T23:31:34.954Z,35.10
2018-11-10T23:34:05.420Z,36.30
2018-11-10T23:36:35.476Z,42.33
2018-11-10T23:39:08.854Z,40.67
2018-11-10T23:41:39.420Z,41.87
2018-11-10T23:44:10.056Z,36.90
2018-11-10T23:46:40.639Z,36.73
2018-11-10T23:49:11.698Z,38.23
2018-11-10T23:51:42.081Z,33.77
2018-11-10T23:54:12.433Z,39.67
2018-11-10T23:56:42.834Z,40.30
2018-11-10T23:59:12.904Z,38.17
